sensor_id;sensor_type;location;lat;lon;timestamp;temperature;humidity
65864;SHT30;52639;51.180;20.460;2023-02-04T00:00:08;1.43;99.99
65864;SHT30;52639;51.180;20.460;2023-02-04T00:04:33;1.44;99.99
65864;SHT30;52639;51.180;20.460;2023-02-04T00:08:38;1.44;99.99
65864;SHT30;52639;51.180;20.460;2023-02-04T00:12:41;1.39;99.99
65864;SHT30;52639;51.180;20.460;2023-02-04T00:16:43;1.37;99.99
65864;SHT30;52639;51.180;20.460;2023-02-04T00:20:46;1.33;99.99
65864;SHT30;52639;51.180;20.460;2023-02-04T00:24:51;1.29;99.99
65864;SHT30;52639;51.180;20.460;2023-02-04T00:28:54;1.25;99.99
65864;SHT30;52639;51.180;20.460;2023-02-04T00:32:57;1.16;99.99
65864;SHT30;52639;51.180;20.460;2023-02-04T00:36:59;1.03;99.99
65864;SHT30;52639;51.180;20.460;2023-02-04T00:41:04;0.91;99.98
65864;SHT30;52639;51.180;20.460;2023-02-04T00:45:09;0.78;99.90
65864;SHT30;52639;51.180;20.460;2023-02-04T00:49:12;0.66;99.93
65864;SHT30;52639;51.180;20.460;2023-02-04T00:53:15;0.54;99.99
65864;SHT30;52639;51.180;20.460;2023-02-04T00:57:19;0.48;99.99
65864;SHT30;52639;51.180;20.460;2023-02-04T01:01:22;0.32;99.99
65864;SHT30;52639;51.180;20.460;2023-02-04T01:05:26;0.25;99.99
65864;SHT30;52639;51.180;20.460;2023-02-04T01:09:29;0.15;99.99
65864;SHT30;52639;51.180;20.460;2023-02-04T01:13:35;0.07;99.99
65864;SHT30;52639;51.180;20.460;2023-02-04T01:17:38;0.01;99.99
65864;SHT30;52639;51.180;20.460;2023-02-04T01:21:42;0.01;99.99
65864;SHT30;52639;51.180;20.460;2023-02-04T01:25:45;0.00;99.99
65864;SHT30;52639;51.180;20.460;2023-02-04T01:29:49;-0.06;99.99
65864;SHT30;52639;51.180;20.460;2023-02-04T01:33:52;-0.09;99.99
65864;SHT30;52639;51.180;20.460;2023-02-04T01:37:56;-0.18;99.99
65864;SHT30;52639;51.180;20.460;2023-02-04T01:41:59;-0.26;99.99
65864;SHT30;52639;51.180;20.460;2023-02-04T01:46:04;-0.36;99.99
65864;SHT30;52639;51.180;20.460;2023-02-04T01:50:10;-0.38;99.99
65864;SHT30;52639;51.180;20.460;2023-02-04T01:54:15;-0.44;99.99
65864;SHT30;52639;51.180;20.460;2023-02-04T01:58:19;-0.54;99.99
65864;SHT30;52639;51.180;20.460;2023-02-04T02:02:41;-0.68;99.99
65864;SHT30;52639;51.180;20.460;2023-02-04T02:06:47;-0.74;99.99
65864;SHT30;52639;51.180;20.460;2023-02-04T02:10:51;-0.81;99.99
65864;SHT30;52639;51.180;20.460;2023-02-04T02:14:54;-0.88;99.99
65864;SHT30;52639;51.180;20.460;2023-02-04T02:18:59;-0.93;99.99
65864;SHT30;52639;51.180;20.460;2023-02-04T02:23:06;-0.96;99.99
65864;SHT30;52639;51.180;20.460;2023-02-04T02:27:42;-1.06;99.99
65864;SHT30;52639;51.180;20.460;2023-02-04T02:31:45;-1.15;99.99
65864;SHT30;52639;51.180;20.460;2023-02-04T02:35:49;-1.28;99.91
65864;SHT30;52639;51.180;20.460;2023-02-04T02:39:52;-1.28;99.99
65864;SHT30;52639;51.180;20.460;2023-02-04T02:43:56;-1.32;99.97
65864;SHT30;52639;51.180;20.460;2023-02-04T02:48:00;-1.39;99.65
65864;SHT30;52639;51.180;20.460;2023-02-04T02:52:12;-1.42;99.52
65864;SHT30;52639;51.180;20.460;2023-02-04T02:56:16;-1.43;99.46
65864;SHT30;52639;51.180;20.460;2023-02-04T03:00:23;-1.47;99.21
65864;SHT30;52639;51.180;20.460;2023-02-04T03:04:27;-1.53;99.07
65864;SHT30;52639;51.180;20.460;2023-02-04T03:08:31;-1.53;99.02
65864;SHT30;52639;51.180;20.460;2023-02-04T03:12:34;-1.56;98.97
65864;SHT30;52639;51.180;20.460;2023-02-04T03:16:39;-1.63;98.72
65864;SHT30;52639;51.180;20.460;2023-02-04T03:20:42;-1.66;98.54
65864;SHT30;52639;51.180;20.460;2023-02-04T03:24:45;-1.68;98.45
65864;SHT30;52639;51.180;20.460;2023-02-04T03:28:49;-1.73;98.48
65864;SHT30;52639;51.180;20.460;2023-02-04T03:32:54;-1.73;98.29
65864;SHT30;52639;51.180;20.460;2023-02-04T03:36:56;-1.73;98.06
65864;SHT30;52639;51.180;20.460;2023-02-04T03:41:00;-1.73;97.85
65864;SHT30;52639;51.180;20.460;2023-02-04T03:45:03;-1.76;97.79
65864;SHT30;52639;51.180;20.460;2023-02-04T03:49:08;-1.76;97.83
65864;SHT30;52639;51.180;20.460;2023-02-04T03:53:11;-1.77;97.81
65864;SHT30;52639;51.180;20.460;2023-02-04T03:57:14;-1.78;98.03
65864;SHT30;52639;51.180;20.460;2023-02-04T04:01:17;-1.86;97.63
65864;SHT30;52639;51.180;20.460;2023-02-04T04:05:21;-1.83;98.09
65864;SHT30;52639;51.180;20.460;2023-02-04T04:09:24;-1.81;98.13
65864;SHT30;52639;51.180;20.460;2023-02-04T04:13:27;-1.81;98.16
65864;SHT30;52639;51.180;20.460;2023-02-04T04:17:30;-1.87;97.92
65864;SHT30;52639;51.180;20.460;2023-02-04T04:21:35;-1.84;97.85
65864;SHT30;52639;51.180;20.460;2023-02-04T04:25:38;-1.88;97.52
65864;SHT30;52639;51.180;20.460;2023-02-04T04:29:40;-1.94;97.65
65864;SHT30;52639;51.180;20.460;2023-02-04T04:33:43;-1.94;97.77
65864;SHT30;52639;51.180;20.460;2023-02-04T04:37:48;-1.94;97.61
65864;SHT30;52639;51.180;20.460;2023-02-04T04:41:51;-1.94;96.61
65864;SHT30;52639;51.180;20.460;2023-02-04T04:45:53;-1.91;96.42
65864;SHT30;52639;51.180;20.460;2023-02-04T04:49:56;-1.90;95.81
65864;SHT30;52639;51.180;20.460;2023-02-04T04:54:01;-1.94;96.14
65864;SHT30;52639;51.180;20.460;2023-02-04T04:58:04;-1.93;95.53
65864;SHT30;52639;51.180;20.460;2023-02-04T05:02:07;-1.94;95.75
65864;SHT30;52639;51.180;20.460;2023-02-04T05:06:10;-1.95;95.94
65864;SHT30;52639;51.180;20.460;2023-02-04T05:10:15;-1.97;95.73
65864;SHT30;52639;51.180;20.460;2023-02-04T05:14:18;-1.97;95.90
65864;SHT30;52639;51.180;20.460;2023-02-04T05:18:21;-1.94;94.41
65864;SHT30;52639;51.180;20.460;2023-02-04T05:22:24;-1.97;94.96
65864;SHT30;52639;51.180;20.460;2023-02-04T05:26:28;-1.97;95.55
65864;SHT30;52639;51.180;20.460;2023-02-04T05:30:31;-1.98;95.28
65864;SHT30;52639;51.180;20.460;2023-02-04T05:34:34;-2.00;95.41
65864;SHT30;52639;51.180;20.460;2023-02-04T05:38:37;-2.01;95.55
65864;SHT30;52639;51.180;20.460;2023-02-04T05:42:41;-2.01;95.59
65864;SHT30;52639;51.180;20.460;2023-02-04T05:46:44;-1.98;95.63
65864;SHT30;52639;51.180;20.460;2023-02-04T05:50:47;-1.98;95.23
65864;SHT30;52639;51.180;20.460;2023-02-04T05:54:50;-2.01;95.31
65864;SHT30;52639;51.180;20.460;2023-02-04T05:58:54;-2.01;94.54
65864;SHT30;52639;51.180;20.460;2023-02-04T06:03:00;-2.04;94.77
65864;SHT30;52639;51.180;20.460;2023-02-04T06:07:03;-2.01;94.87
65864;SHT30;52639;51.180;20.460;2023-02-04T06:11:06;-2.02;94.76
65864;SHT30;52639;51.180;20.460;2023-02-04T06:15:11;-2.01;94.41
65864;SHT30;52639;51.180;20.460;2023-02-04T06:19:14;-2.00;93.74
65864;SHT30;52639;51.180;20.460;2023-02-04T06:23:16;-2.00;93.83
65864;SHT30;52639;51.180;20.460;2023-02-04T06:27:19;-1.97;93.88
65864;SHT30;52639;51.180;20.460;2023-02-04T06:31:26;-1.94;93.59
65864;SHT30;52639;51.180;20.460;2023-02-04T06:35:31;-1.93;94.15
65864;SHT30;52639;51.180;20.460;2023-02-04T06:39:34;-1.90;94.22
65864;SHT30;52639;51.180;20.460;2023-02-04T06:43:37;-1.83;94.09
65864;SHT30;52639;51.180;20.460;2023-02-04T06:47:42;-1.84;93.59
65864;SHT30;52639;51.180;20.460;2023-02-04T06:51:45;-1.81;93.97
65864;SHT30;52639;51.180;20.460;2023-02-04T06:55:48;-1.83;94.32
65864;SHT30;52639;51.180;20.460;2023-02-04T06:59:54;-1.83;94.71
65864;SHT30;52639;51.180;20.460;2023-02-04T07:03:59;-1.77;94.67
65864;SHT30;52639;51.180;20.460;2023-02-04T07:08:02;-1.70;94.81
65864;SHT30;52639;51.180;20.460;2023-02-04T07:12:05;-1.62;94.99
65864;SHT30;52639;51.180;20.460;2023-02-04T07:16:09;-1.64;94.99
65864;SHT30;52639;51.180;20.460;2023-02-04T07:20:16;-1.64;94.46
65864;SHT30;52639;51.180;20.460;2023-02-04T07:24:19;-1.64;94.02
65864;SHT30;52639;51.180;20.460;2023-02-04T07:28:22;-1.64;94.29
65864;SHT30;52639;51.180;20.460;2023-02-04T07:32:25;-1.54;94.38
65864;SHT30;52639;51.180;20.460;2023-02-04T07:36:34;-1.49;94.17
65864;SHT30;52639;51.180;20.460;2023-02-04T07:40:37;-1.50;93.90
65864;SHT30;52639;51.180;20.460;2023-02-04T07:44:40;-1.57;94.00
65864;SHT30;52639;51.180;20.460;2023-02-04T07:48:43;-1.60;94.17
65864;SHT30;52639;51.180;20.460;2023-02-04T07:52:48;-1.54;93.85
65864;SHT30;52639;51.180;20.460;2023-02-04T07:56:51;-1.46;93.50
65864;SHT30;52639;51.180;20.460;2023-02-04T08:00:54;-1.46;93.35
65864;SHT30;52639;51.180;20.460;2023-02-04T08:04:57;-1.38;93.69
65864;SHT30;52639;51.180;20.460;2023-02-04T08:09:01;-1.33;93.02
65864;SHT30;52639;51.180;20.460;2023-02-04T08:13:04;-1.13;93.13
65864;SHT30;52639;51.180;20.460;2023-02-04T08:17:07;-0.99;91.83
65864;SHT30;52639;51.180;20.460;2023-02-04T08:21:09;-0.92;91.60
65864;SHT30;52639;51.180;20.460;2023-02-04T08:25:14;-0.85;92.06
65864;SHT30;52639;51.180;20.460;2023-02-04T08:29:17;-0.72;90.37
65864;SHT30;52639;51.180;20.460;2023-02-04T08:33:20;-0.68;90.69
65864;SHT30;52639;51.180;20.460;2023-02-04T08:37:23;-0.72;90.43
65864;SHT30;52639;51.180;20.460;2023-02-04T08:41:28;-0.53;89.78
65864;SHT30;52639;51.180;20.460;2023-02-04T08:45:31;-0.71;89.57
65864;SHT30;52639;51.180;20.460;2023-02-04T08:49:34;-1.01;89.24
65864;SHT30;52639;51.180;20.460;2023-02-04T08:53:37;-1.38;87.88
65864;SHT30;52639;51.180;20.460;2023-02-04T08:57:42;3.89;79.57
65864;SHT30;52639;51.180;20.460;2023-02-04T09:01:45;5.28;68.84
65864;SHT30;52639;51.180;20.460;2023-02-04T09:05:49;2.73;80.67
65864;SHT30;52639;51.180;20.460;2023-02-04T09:09:52;1.66;83.32
65864;SHT30;52639;51.180;20.460;2023-02-04T09:13:57;0.28;84.78
65864;SHT30;52639;51.180;20.460;2023-02-04T09:18:00;-0.53;87.02
65864;SHT30;52639;51.180;20.460;2023-02-04T09:22:11;-0.79;87.05
65864;SHT30;52639;51.180;20.460;2023-02-04T09:26:15;-0.98;88.02
65864;SHT30;52639;51.180;20.460;2023-02-04T09:30:20;-0.96;88.91
65864;SHT30;52639;51.180;20.460;2023-02-04T09:34:23;-1.15;87.48
65864;SHT30;52639;51.180;20.460;2023-02-04T09:38:26;-0.16;84.67
65864;SHT30;52639;51.180;20.460;2023-02-04T09:42:29;1.05;80.61
65864;SHT30;52639;51.180;20.460;2023-02-04T09:46:33;5.00;74.11
65864;SHT30;52639;51.180;20.460;2023-02-04T09:50:36;6.53;69.55
65864;SHT30;52639;51.180;20.460;2023-02-04T09:54:39;6.36;67.75
65864;SHT30;52639;51.180;20.460;2023-02-04T09:58:43;5.55;67.90
65864;SHT30;52639;51.180;20.460;2023-02-04T10:02:47;1.84;75.17
65864;SHT30;52639;51.180;20.460;2023-02-04T10:06:50;0.17;81.51
65864;SHT30;52639;51.180;20.460;2023-02-04T10:10:54;2.21;74.64
65864;SHT30;52639;51.180;20.460;2023-02-04T10:14:57;1.30;80.73
65864;SHT30;52639;51.180;20.460;2023-02-04T10:19:06;3.67;72.40
65864;SHT30;52639;51.180;20.460;2023-02-04T10:23:09;0.79;77.70
65864;SHT30;52639;51.180;20.460;2023-02-04T10:27:13;1.57;77.71
65864;SHT30;52639;51.180;20.460;2023-02-04T10:31:28;1.64;78.39
65864;SHT30;52639;51.180;20.460;2023-02-04T10:35:43;0.81;80.43
65864;SHT30;52639;51.180;20.460;2023-02-04T10:39:47;0.79;81.12
65864;SHT30;52639;51.180;20.460;2023-02-04T10:43:54;0.73;79.65
65864;SHT30;52639;51.180;20.460;2023-02-04T10:48:04;1.03;79.25
65864;SHT30;52639;51.180;20.460;2023-02-04T10:52:15;0.99;80.13
65864;SHT30;52639;51.180;20.460;2023-02-04T10:56:20;0.76;76.99
65864;SHT30;52639;51.180;20.460;2023-02-04T11:00:24;0.15;80.24
65864;SHT30;52639;51.180;20.460;2023-02-04T11:04:28;-0.40;80.45
65864;SHT30;52639;51.180;20.460;2023-02-04T11:08:35;0.00;81.07
65864;SHT30;52639;51.180;20.460;2023-02-04T11:12:40;-0.11;81.44
65864;SHT30;52639;51.180;20.460;2023-02-04T11:16:46;-0.27;80.00
65864;SHT30;52639;51.180;20.460;2023-02-04T11:20:52;-0.17;80.42
65864;SHT30;52639;51.180;20.460;2023-02-04T11:24:57;-0.23;80.89
65864;SHT30;52639;51.180;20.460;2023-02-04T11:29:21;-0.13;82.48
65864;SHT30;52639;51.180;20.460;2023-02-04T11:33:36;-0.37;81.89
65864;SHT30;52639;51.180;20.460;2023-02-04T11:37:41;-0.48;82.03
65864;SHT30;52639;51.180;20.460;2023-02-04T11:41:46;-0.36;81.97
65864;SHT30;52639;51.180;20.460;2023-02-04T11:46:01;-0.03;80.56
65864;SHT30;52639;51.180;20.460;2023-02-04T11:50:20;0.06;76.78
65864;SHT30;52639;51.180;20.460;2023-02-04T11:54:25;-0.50;79.80
65864;SHT30;52639;51.180;20.460;2023-02-04T11:58:32;-0.68;80.23
65864;SHT30;52639;51.180;20.460;2023-02-04T12:02:41;-0.24;79.61
65864;SHT30;52639;51.180;20.460;2023-02-04T12:06:56;-0.21;80.81
65864;SHT30;52639;51.180;20.460;2023-02-04T12:11:05;0.08;78.77
65864;SHT30;52639;51.180;20.460;2023-02-04T12:15:20;-0.17;78.79
65864;SHT30;52639;51.180;20.460;2023-02-04T12:19:25;0.14;79.76
65864;SHT30;52639;51.180;20.460;2023-02-04T12:23:29;0.08;79.35
65864;SHT30;52639;51.180;20.460;2023-02-04T12:27:32;0.14;77.27
65864;SHT30;52639;51.180;20.460;2023-02-04T12:31:36;0.06;76.81
65864;SHT30;52639;51.180;20.460;2023-02-04T12:35:39;-0.38;78.20
65864;SHT30;52639;51.180;20.460;2023-02-04T12:39:42;-0.51;77.74
65864;SHT30;52639;51.180;20.460;2023-02-04T12:43:45;-0.48;79.33
65864;SHT30;52639;51.180;20.460;2023-02-04T12:47:52;-0.77;79.15
65864;SHT30;52639;51.180;20.460;2023-02-04T12:51:55;-0.74;78.98
65864;SHT30;52639;51.180;20.460;2023-02-04T12:56:02;-0.60;81.90
65864;SHT30;52639;51.180;20.460;2023-02-04T13:00:06;-0.20;80.58
65864;SHT30;52639;51.180;20.460;2023-02-04T13:04:11;0.15;80.00
65864;SHT30;52639;51.180;20.460;2023-02-04T13:08:14;0.04;76.10
65864;SHT30;52639;51.180;20.460;2023-02-04T13:12:17;-0.13;78.02
65864;SHT30;52639;51.180;20.460;2023-02-04T13:16:20;-0.04;77.12
65864;SHT30;52639;51.180;20.460;2023-02-04T13:20:26;0.36;76.72
65864;SHT30;52639;51.180;20.460;2023-02-04T13:24:29;-0.03;76.87
65864;SHT30;52639;51.180;20.460;2023-02-04T13:28:32;-0.14;78.08
65864;SHT30;52639;51.180;20.460;2023-02-04T13:32:35;-0.21;79.19
65864;SHT30;52639;51.180;20.460;2023-02-04T13:36:40;-0.72;80.12
65864;SHT30;52639;51.180;20.460;2023-02-04T13:40:44;-1.02;80.28
65864;SHT30;52639;51.180;20.460;2023-02-04T13:44:49;-1.39;80.79
65864;SHT30;52639;51.180;20.460;2023-02-04T13:48:53;-1.60;82.06
65864;SHT30;52639;51.180;20.460;2023-02-04T13:52:58;-1.50;82.25
65864;SHT30;52639;51.180;20.460;2023-02-04T13:57:03;-1.47;83.43
65864;SHT30;52639;51.180;20.460;2023-02-04T14:01:10;-1.50;82.76
65864;SHT30;52639;51.180;20.460;2023-02-04T14:05:14;-1.56;83.27
65864;SHT30;52639;51.180;20.460;2023-02-04T14:09:19;-1.49;83.52
65864;SHT30;52639;51.180;20.460;2023-02-04T14:13:21;-1.46;83.68
65864;SHT30;52639;51.180;20.460;2023-02-04T14:17:24;-1.52;84.18
65864;SHT30;52639;51.180;20.460;2023-02-04T14:21:27;-1.44;83.47
65864;SHT30;52639;51.180;20.460;2023-02-04T14:25:32;-1.46;83.50
65864;SHT30;52639;51.180;20.460;2023-02-04T14:29:35;-1.70;83.54
65864;SHT30;52639;51.180;20.460;2023-02-04T14:33:38;-1.73;84.43
65864;SHT30;52639;51.180;20.460;2023-02-04T14:37:42;-1.87;84.48
65864;SHT30;52639;51.180;20.460;2023-02-04T14:41:47;-1.95;84.69
65864;SHT30;52639;51.180;20.460;2023-02-04T14:45:50;-1.94;85.21
65864;SHT30;52639;51.180;20.460;2023-02-04T14:49:54;-2.00;85.34
65864;SHT30;52639;51.180;20.460;2023-02-04T14:53:57;-2.08;85.34
65864;SHT30;52639;51.180;20.460;2023-02-04T14:58:03;-2.11;85.44
65864;SHT30;52639;51.180;20.460;2023-02-04T15:02:08;-2.21;85.54
65864;SHT30;52639;51.180;20.460;2023-02-04T15:06:12;-2.20;85.39
65864;SHT30;52639;51.180;20.460;2023-02-04T15:10:20;-2.18;85.98
65864;SHT30;52639;51.180;20.460;2023-02-04T15:14:27;-2.18;86.38
65864;SHT30;52639;51.180;20.460;2023-02-04T15:18:32;-2.30;86.68
65864;SHT30;52639;51.180;20.460;2023-02-04T15:22:45;-2.32;87.42
65864;SHT30;52639;51.180;20.460;2023-02-04T15:27:04;-2.28;87.78
65864;SHT30;52639;51.180;20.460;2023-02-04T15:31:15;-2.27;87.69
65864;SHT30;52639;51.180;20.460;2023-02-04T15:35:19;-2.34;88.20
65864;SHT30;52639;51.180;20.460;2023-02-04T15:39:22;-2.42;87.92
65864;SHT30;52639;51.180;20.460;2023-02-04T15:43:28;-2.58;88.31
65864;SHT30;52639;51.180;20.460;2023-02-04T15:47:40;-2.65;89.21
65864;SHT30;52639;51.180;20.460;2023-02-04T15:51:55;-2.63;89.08
65864;SHT30;52639;51.180;20.460;2023-02-04T15:55:59;-2.65;89.48
65864;SHT30;52639;51.180;20.460;2023-02-04T16:00:04;-2.63;89.84
65864;SHT30;52639;51.180;20.460;2023-02-04T16:04:10;-2.55;90.58
65864;SHT30;52639;51.180;20.460;2023-02-04T16:08:14;-2.46;91.18
65864;SHT30;52639;51.180;20.460;2023-02-04T16:12:17;-2.52;93.14
65864;SHT30;52639;51.180;20.460;2023-02-04T16:16:21;-2.63;94.21
65864;SHT30;52639;51.180;20.460;2023-02-04T16:20:26;-2.69;94.62
65864;SHT30;52639;51.180;20.460;2023-02-04T16:24:30;-2.77;94.83
65864;SHT30;52639;51.180;20.460;2023-02-04T16:28:33;-2.95;94.19
65864;SHT30;52639;51.180;20.460;2023-02-04T16:32:36;-3.26;94.29
65864;SHT30;52639;51.180;20.460;2023-02-04T16:36:42;-3.61;94.28
65864;SHT30;52639;51.180;20.460;2023-02-04T16:40:48;-3.94;93.84
65864;SHT30;52639;51.180;20.460;2023-02-04T16:44:51;-4.05;95.00
65864;SHT30;52639;51.180;20.460;2023-02-04T16:49:02;-4.28;95.10
65864;SHT30;52639;51.180;20.460;2023-02-04T16:53:09;-4.29;97.48
65864;SHT30;52639;51.180;20.460;2023-02-04T16:57:18;-4.18;97.41
65864;SHT30;52639;51.180;20.460;2023-02-04T17:01:27;-4.33;97.74
65864;SHT30;52639;51.180;20.460;2023-02-04T17:05:34;-4.40;96.60
65864;SHT30;52639;51.180;20.460;2023-02-04T17:09:39;-4.19;98.31
65864;SHT30;52639;51.180;20.460;2023-02-04T17:13:44;-4.23;97.26
65864;SHT30;52639;51.180;20.460;2023-02-04T17:30:20;-4.46;96.35
65864;SHT30;52639;51.180;20.460;2023-02-04T17:34:26;-4.53;96.04
65864;SHT30;52639;51.180;20.460;2023-02-04T17:38:30;-4.56;96.61
65864;SHT30;52639;51.180;20.460;2023-02-04T17:42:34;-4.74;96.02
65864;SHT30;52639;51.180;20.460;2023-02-04T17:46:40;-4.71;97.08
65864;SHT30;52639;51.180;20.460;2023-02-04T17:50:44;-4.19;98.86
65864;SHT30;52639;51.180;20.460;2023-02-04T17:54:48;-4.08;97.36
65864;SHT30;52639;51.180;20.460;2023-02-04T17:58:53;-4.08;97.27
65864;SHT30;52639;51.180;20.460;2023-02-04T18:02:59;-3.98;97.00
65864;SHT30;52639;51.180;20.460;2023-02-04T18:07:07;-4.16;96.50
65864;SHT30;52639;51.180;20.460;2023-02-04T18:11:16;-4.09;98.00
65864;SHT30;52639;51.180;20.460;2023-02-04T18:15:25;-3.86;97.63
65864;SHT30;52639;51.180;20.460;2023-02-04T18:19:32;-3.82;97.46
65864;SHT30;52639;51.180;20.460;2023-02-04T18:23:37;-3.71;97.60
65864;SHT30;52639;51.180;20.460;2023-02-04T18:27:40;-3.78;97.03
65864;SHT30;52639;51.180;20.460;2023-02-04T18:31:49;-3.86;97.67
65864;SHT30;52639;51.180;20.460;2023-02-04T18:35:59;-3.95;96.71
65864;SHT30;52639;51.180;20.460;2023-02-04T18:40:22;-3.95;97.07
65864;SHT30;52639;51.180;20.460;2023-02-04T18:44:31;-3.81;97.50
65864;SHT30;52639;51.180;20.460;2023-02-04T18:48:57;-3.61;97.66
65864;SHT30;52639;51.180;20.460;2023-02-04T18:53:18;-3.55;97.26
65864;SHT30;52639;51.180;20.460;2023-02-04T18:57:35;-3.61;96.58
65864;SHT30;52639;51.180;20.460;2023-02-04T19:01:39;-3.84;96.46
65864;SHT30;52639;51.180;20.460;2023-02-04T19:05:47;-4.01;96.53
65864;SHT30;52639;51.180;20.460;2023-02-04T19:09:52;-4.09;97.16
65864;SHT30;52639;51.180;20.460;2023-02-04T19:13:59;-4.30;96.22
65864;SHT30;52639;51.180;20.460;2023-02-04T19:18:16;-4.40;96.38
65864;SHT30;52639;51.180;20.460;2023-02-04T19:22:28;-4.32;97.27
65864;SHT30;52639;51.180;20.460;2023-02-04T19:26:39;-4.29;96.31
65864;SHT30;52639;51.180;20.460;2023-02-04T19:30:45;-4.12;98.00
65864;SHT30;52639;51.180;20.460;2023-02-04T19:34:52;-3.89;97.60
65864;SHT30;52639;51.180;20.460;2023-02-04T19:38:58;-3.77;97.53
65864;SHT30;52639;51.180;20.460;2023-02-04T19:43:19;-3.65;97.17
65864;SHT30;52639;51.180;20.460;2023-02-04T19:47:26;-3.62;96.86
65864;SHT30;52639;51.180;20.460;2023-02-04T19:51:30;-3.61;96.86
65864;SHT30;52639;51.180;20.460;2023-02-04T19:55:41;-3.55;96.86
65864;SHT30;52639;51.180;20.460;2023-02-04T19:59:47;-3.54;96.50
65864;SHT30;52639;51.180;20.460;2023-02-04T20:03:51;-3.54;96.50
65864;SHT30;52639;51.180;20.460;2023-02-04T20:08:02;-3.57;96.42
65864;SHT30;52639;51.180;20.460;2023-02-04T20:12:14;-3.58;96.45
65864;SHT30;52639;51.180;20.460;2023-02-04T20:16:35;-3.62;96.27
65864;SHT30;52639;51.180;20.460;2023-02-04T20:20:44;-3.70;96.14
65864;SHT30;52639;51.180;20.460;2023-02-04T20:24:50;-3.71;95.87
65864;SHT30;52639;51.180;20.460;2023-02-04T20:28:53;-3.72;95.92
65864;SHT30;52639;51.180;20.460;2023-02-04T20:33:12;-3.77;95.68
65864;SHT30;52639;51.180;20.460;2023-02-04T20:37:24;-3.81;95.79
65864;SHT30;52639;51.180;20.460;2023-02-04T20:41:36;-3.78;95.92
65864;SHT30;52639;51.180;20.460;2023-02-04T20:45:45;-3.81;95.85
65864;SHT30;52639;51.180;20.460;2023-02-04T20:49:53;-3.79;95.49
65864;SHT30;52639;51.180;20.460;2023-02-04T20:53:56;-3.77;95.51
65864;SHT30;52639;51.180;20.460;2023-02-04T20:58:14;-3.82;95.37
65864;SHT30;52639;51.180;20.460;2023-02-04T21:02:17;-3.99;95.03
65864;SHT30;52639;51.180;20.460;2023-02-04T21:06:25;-3.96;95.65
65864;SHT30;52639;51.180;20.460;2023-02-04T21:10:29;-3.91;95.61
65864;SHT30;52639;51.180;20.460;2023-02-04T21:14:33;-3.85;95.41
65864;SHT30;52639;51.180;20.460;2023-02-04T21:18:36;-3.86;95.34
65864;SHT30;52639;51.180;20.460;2023-02-04T21:22:42;-3.89;95.15
65864;SHT30;52639;51.180;20.460;2023-02-04T21:26:45;-3.88;95.32
65864;SHT30;52639;51.180;20.460;2023-02-04T21:30:49;-3.94;95.02
65864;SHT30;52639;51.180;20.460;2023-02-04T21:34:52;-4.02;95.05
65864;SHT30;52639;51.180;20.460;2023-02-04T21:38:57;-4.18;94.95
65864;SHT30;52639;51.180;20.460;2023-02-04T21:43:01;-4.19;95.38
65864;SHT30;52639;51.180;20.460;2023-02-04T21:47:06;-4.18;95.35
65864;SHT30;52639;51.180;20.460;2023-02-04T21:51:10;-4.12;95.40
65864;SHT30;52639;51.180;20.460;2023-02-04T21:55:15;-4.18;95.15
65864;SHT30;52639;51.180;20.460;2023-02-04T21:59:19;-4.15;95.41
65864;SHT30;52639;51.180;20.460;2023-02-04T22:03:25;-4.13;95.13
65864;SHT30;52639;51.180;20.460;2023-02-04T22:07:28;-4.18;95.16
65864;SHT30;52639;51.180;20.460;2023-02-04T22:11:32;-4.19;95.56
65864;SHT30;52639;51.180;20.460;2023-02-04T22:15:35;-4.15;95.35
65864;SHT30;52639;51.180;20.460;2023-02-04T22:19:38;-4.13;95.26
65864;SHT30;52639;51.180;20.460;2023-02-04T22:23:41;-4.10;95.24
65864;SHT30;52639;51.180;20.460;2023-02-04T22:27:46;-4.08;95.44
65864;SHT30;52639;51.180;20.460;2023-02-04T22:31:49;-4.03;95.56
65864;SHT30;52639;51.180;20.460;2023-02-04T22:35:52;-3.98;95.53
65864;SHT30;52639;51.180;20.460;2023-02-04T22:39:55;-3.98;95.49
65864;SHT30;52639;51.180;20.460;2023-02-04T22:44:00;-3.94;95.37
65864;SHT30;52639;51.180;20.460;2023-02-04T22:48:04;-3.94;95.36
65864;SHT30;52639;51.180;20.460;2023-02-04T22:52:07;-3.95;95.33
65864;SHT30;52639;51.180;20.460;2023-02-04T22:56:10;-3.89;95.39
65864;SHT30;52639;51.180;20.460;2023-02-04T23:00:15;-3.94;95.27
65864;SHT30;52639;51.180;20.460;2023-02-04T23:04:18;-3.94;95.52
65864;SHT30;52639;51.180;20.460;2023-02-04T23:08:21;-3.92;95.47
65864;SHT30;52639;51.180;20.460;2023-02-04T23:12:24;-3.94;95.36
65864;SHT30;52639;51.180;20.460;2023-02-04T23:16:29;-3.96;95.50
65864;SHT30;52639;51.180;20.460;2023-02-04T23:20:32;-3.98;95.45
65864;SHT30;52639;51.180;20.460;2023-02-04T23:24:36;-3.96;95.51
65864;SHT30;52639;51.180;20.460;2023-02-04T23:28:39;-3.99;95.43
65864;SHT30;52639;51.180;20.460;2023-02-04T23:32:44;-4.02;95.34
65864;SHT30;52639;51.180;20.460;2023-02-04T23:36:47;-3.98;95.55
65864;SHT30;52639;51.180;20.460;2023-02-04T23:40:51;-4.01;95.31
65864;SHT30;52639;51.180;20.460;2023-02-04T23:44:54;-3.99;95.41
65864;SHT30;52639;51.180;20.460;2023-02-04T23:48:58;-4.01;95.28
65864;SHT30;52639;51.180;20.460;2023-02-04T23:53:02;-3.99;95.30
65864;SHT30;52639;51.180;20.460;2023-02-04T23:57:05;-4.01;95.09
